YGIG weather

RAAF Gingin
Western Australia, Australia

Public forecast

Using degrees Celsius for public forecast. Weather courtesy of forecast.io.

Closest aviation weather report (METAR) to RAAF Gingin

Closest report is RAAF Base Pearce, 14.4 nm (26.7 km) SSE. Retrieved 2019/10/19 13:30 UTC (0 seconds ago):

YPEA 191330Z AUTO 35014KT 9999 // NCD 21/12 Q1013

Closest aviation forecast (TAF) to RAAF Gingin

Closest forecast is RAAF Base Pearce, 14.4 nm (26.7 km) SSE. Retrieved 2019/10/19 12:00 UTC (1 hour ago):

TAF YPEA 191108Z 1912/2006 02008KT CAVOK FM191800 36008KT 9999 SCT006 BKN015 FM200100 31010KT CAVOK